Southwest Oregon Regional Airport
KOTH : now visible

Airfield :











YOU CAN JOIN US ON...

 
LOGIN :

Register | Disclaimer

   EN    FR    IT 

 









Legend :    VFR   Marginal VFR   IFR   Intensive IFR   Very Intensive IFR
Visi :
Ceiling :
>= 8 km
>= 3000ft
5 to 8 km
1000 to 3000 ft
1500m to 5 km
500 to 1000 ft
800 to 1500m
200 to 500 ft
< 800m
< 200 ft
Symbols :   Thunderstorms  Fog  Heavy snow  Heavy precipitations  Wind > 20 kt






- Airport Elevation : 17 ft
- IATA code : OTH


KOTH - Southwest Oregon Regional

CURRENT METAR :
  • 250356Z 36012KT 10SM OVC005 14/13 A3007 RMK AO2 SLP181 T01390128

EXPIRED METARs :
  • 250312Z 36014KT 6SM BR OVC005 14/13 A3006 RMK AO2
  • 250256Z 35010KT 6SM BR BKN007 14/13 A3006 RMK AO2 SLP180 T01390128 55002
  • 250226Z 34016KT 10SM BKN007 15/13 A3006 RMK AO2
  • 250156Z 34014KT 10SM CLR 16/13 A3005 RMK AO2 SLP177 VIS SW-N 6 BR T01610128

TAF KOTH
Valid from the 25 at 03:00 until the 26 at 00:00 UTC


250301Z 2503/2524 35012KT P6SM BKN006
FM250400 35010KT P6SM OVC008
FM250800 VRB03KT P6SM OVC005
FM251700 33008KT P6SM BKN008
FM252100 35012G20KT P6SM SKC
KZSE FIR / North America



MET'MAP, your aeronautical weather chart ! - Copyright ORBIFLY December 2007 - Disclaimer

ORBIFLY MET'MAP TEAM :

Programming & Development : Alexandra Zaïnal
Concept & original design : Baudouin d'Aumeries
Assistance for programming : Marc-Olivier Méhu
Technical & hardware support : Manuel Goepfert

Contact : metmap@orbifly.com




SOURCES & CREDITS :

   NOAA       Earth
Advisory